sensor_id;sensor_type;location;lat;lon;timestamp;P1;durP1;ratioP1;P2;durP2;ratioP2
23370;SDS011;11858;51.056;3.712;2023-06-24T00:01:28;20.25;;;18.45;;
23370;SDS011;11858;51.056;3.712;2023-06-24T00:03:56;19.42;;;18.02;;
23370;SDS011;11858;51.056;3.712;2023-06-24T00:06:22;17.38;;;16.05;;
23370;SDS011;11858;51.056;3.712;2023-06-24T00:08:51;17.20;;;16.10;;
23370;SDS011;11858;51.056;3.712;2023-06-24T00:11:17;17.33;;;16.02;;
23370;SDS011;11858;51.056;3.712;2023-06-24T00:13:43;17.90;;;16.70;;
23370;SDS011;11858;51.056;3.712;2023-06-24T00:16:10;17.70;;;16.55;;
23370;SDS011;11858;51.056;3.712;2023-06-24T00:18:36;17.25;;;16.15;;
23370;SDS011;11858;51.056;3.712;2023-06-24T00:21:05;19.27;;;17.70;;
23370;SDS011;11858;51.056;3.712;2023-06-24T00:23:31;17.55;;;16.45;;
23370;SDS011;11858;51.056;3.712;2023-06-24T00:26:00;18.98;;;17.17;;
23370;SDS011;11858;51.056;3.712;2023-06-24T00:28:26;16.40;;;15.30;;
23370;SDS011;11858;51.056;3.712;2023-06-24T00:30:53;16.75;;;15.55;;
23370;SDS011;11858;51.056;3.712;2023-06-24T00:33:19;17.45;;;16.15;;
23370;SDS011;11858;51.056;3.712;2023-06-24T00:35:45;17.80;;;16.60;;
23370;SDS011;11858;51.056;3.712;2023-06-24T00:38:10;15.40;;;14.50;;
23370;SDS011;11858;51.056;3.712;2023-06-24T00:40:36;16.02;;;15.02;;
23370;SDS011;11858;51.056;3.712;2023-06-24T00:43:02;16.80;;;15.80;;
23370;SDS011;11858;51.056;3.712;2023-06-24T00:45:29;16.38;;;15.20;;
23370;SDS011;11858;51.056;3.712;2023-06-24T00:48:00;16.05;;;15.05;;
23370;SDS011;11858;51.056;3.712;2023-06-24T00:50:28;16.48;;;15.48;;
23370;SDS011;11858;51.056;3.712;2023-06-24T00:52:53;16.15;;;15.15;;
23370;SDS011;11858;51.056;3.712;2023-06-24T00:55:19;16.20;;;15.20;;
23370;SDS011;11858;51.056;3.712;2023-06-24T00:57:47;16.90;;;15.80;;
23370;SDS011;11858;51.056;3.712;2023-06-24T01:00:16;16.40;;;15.40;;
23370;SDS011;11858;51.056;3.712;2023-06-24T01:02:47;16.73;;;15.73;;
23370;SDS011;11858;51.056;3.712;2023-06-24T01:05:13;16.10;;;15.10;;
23370;SDS011;11858;51.056;3.712;2023-06-24T01:07:40;18.77;;;17.27;;
23370;SDS011;11858;51.056;3.712;2023-06-24T01:10:07;17.30;;;16.20;;
23370;SDS011;11858;51.056;3.712;2023-06-24T01:12:37;17.05;;;15.95;;
23370;SDS011;11858;51.056;3.712;2023-06-24T01:15:04;16.98;;;15.77;;
23370;SDS011;11858;51.056;3.712;2023-06-24T01:20:12;16.73;;;15.63;;
23370;SDS011;11858;51.056;3.712;2023-06-24T01:34:34;15.23;;;14.32;;
23370;SDS011;11858;51.056;3.712;2023-06-24T01:37:21;18.95;;;17.45;;
23370;SDS011;11858;51.056;3.712;2023-06-24T01:40:10;15.20;;;14.30;;
23370;SDS011;11858;51.056;3.712;2023-06-24T01:42:41;17.15;;;15.90;;
23370;SDS011;11858;51.056;3.712;2023-06-24T01:45:10;15.90;;;14.80;;
23370;SDS011;11858;51.056;3.712;2023-06-24T01:47:40;16.45;;;15.32;;
23370;SDS011;11858;51.056;3.712;2023-06-24T01:50:10;15.75;;;14.70;;
23370;SDS011;11858;51.056;3.712;2023-06-24T01:52:37;17.83;;;16.50;;
23370;SDS011;11858;51.056;3.712;2023-06-24T01:55:09;14.77;;;13.88;;
23370;SDS011;11858;51.056;3.712;2023-06-24T01:57:37;14.45;;;13.60;;
23370;SDS011;11858;51.056;3.712;2023-06-24T02:00:05;15.02;;;14.10;;
23370;SDS011;11858;51.056;3.712;2023-06-24T02:02:33;14.38;;;13.57;;
23370;SDS011;11858;51.056;3.712;2023-06-24T02:05:00;14.63;;;13.73;;
23370;SDS011;11858;51.056;3.712;2023-06-24T02:07:28;14.95;;;13.95;;
23370;SDS011;11858;51.056;3.712;2023-06-24T02:09:55;15.50;;;14.40;;
23370;SDS011;11858;51.056;3.712;2023-06-24T02:12:23;18.70;;;17.10;;
23370;SDS011;11858;51.056;3.712;2023-06-24T02:14:51;16.13;;;14.68;;
23370;SDS011;11858;51.056;3.712;2023-06-24T02:17:19;14.20;;;13.40;;
23370;SDS011;11858;51.056;3.712;2023-06-24T02:19:47;14.68;;;13.77;;
23370;SDS011;11858;51.056;3.712;2023-06-24T02:22:13;14.32;;;13.52;;
23370;SDS011;11858;51.056;3.712;2023-06-24T02:24:40;14.52;;;13.63;;
23370;SDS011;11858;51.056;3.712;2023-06-24T02:27:07;16.33;;;15.10;;
23370;SDS011;11858;51.056;3.712;2023-06-24T02:29:33;14.15;;;13.35;;
23370;SDS011;11858;51.056;3.712;2023-06-24T02:32:00;14.77;;;13.88;;
23370;SDS011;11858;51.056;3.712;2023-06-24T02:34:26;15.05;;;13.98;;
23370;SDS011;11858;51.056;3.712;2023-06-24T02:36:52;16.33;;;14.77;;
23370;SDS011;11858;51.056;3.712;2023-06-24T02:39:18;13.55;;;12.75;;
23370;SDS011;11858;51.056;3.712;2023-06-24T02:41:44;14.50;;;13.48;;
23370;SDS011;11858;51.056;3.712;2023-06-24T02:44:12;14.82;;;13.93;;
23370;SDS011;11858;51.056;3.712;2023-06-24T02:46:38;14.35;;;13.27;;
23370;SDS011;11858;51.056;3.712;2023-06-24T02:49:07;15.35;;;14.00;;
23370;SDS011;11858;51.056;3.712;2023-06-24T02:51:34;12.80;;;12.07;;
23370;SDS011;11858;51.056;3.712;2023-06-24T02:54:00;13.48;;;12.57;;
23370;SDS011;11858;51.056;3.712;2023-06-24T02:56:27;13.23;;;12.30;;
23370;SDS011;11858;51.056;3.712;2023-06-24T02:58:53;12.07;;;11.38;;
23370;SDS011;11858;51.056;3.712;2023-06-24T03:01:19;12.70;;;11.90;;
23370;SDS011;11858;51.056;3.712;2023-06-24T03:03:49;14.35;;;13.02;;
23370;SDS011;11858;51.056;3.712;2023-06-24T03:06:19;11.40;;;10.80;;
23370;SDS011;11858;51.056;3.712;2023-06-24T03:08:46;14.05;;;13.05;;
23370;SDS011;11858;51.056;3.712;2023-06-24T03:11:13;11.15;;;10.55;;
23370;SDS011;11858;51.056;3.712;2023-06-24T03:13:39;10.90;;;10.30;;
23370;SDS011;11858;51.056;3.712;2023-06-24T03:16:05;11.35;;;10.75;;
23370;SDS011;11858;51.056;3.712;2023-06-24T03:18:30;13.70;;;10.70;;
23370;SDS011;11858;51.056;3.712;2023-06-24T03:20:56;10.00;;;9.50;;
23370;SDS011;11858;51.056;3.712;2023-06-24T03:23:22;11.25;;;10.55;;
23370;SDS011;11858;51.056;3.712;2023-06-24T03:25:48;11.00;;;10.40;;
23370;SDS011;11858;51.056;3.712;2023-06-24T03:28:13;13.27;;;12.07;;
23370;SDS011;11858;51.056;3.712;2023-06-24T03:30:39;9.90;;;9.40;;
23370;SDS011;11858;51.056;3.712;2023-06-24T03:33:05;10.20;;;9.70;;
23370;SDS011;11858;51.056;3.712;2023-06-24T03:35:31;9.48;;;8.98;;
23370;SDS011;11858;51.056;3.712;2023-06-24T03:37:57;11.18;;;10.25;;
23370;SDS011;11858;51.056;3.712;2023-06-24T03:40:23;9.85;;;9.25;;
23370;SDS011;11858;51.056;3.712;2023-06-24T03:42:49;10.82;;;10.13;;
23370;SDS011;11858;51.056;3.712;2023-06-24T03:45:14;11.57;;;10.55;;
23370;SDS011;11858;51.056;3.712;2023-06-24T03:47:40;10.63;;;9.88;;
23370;SDS011;11858;51.056;3.712;2023-06-24T03:50:06;9.63;;;9.05;;
23370;SDS011;11858;51.056;3.712;2023-06-24T03:52:32;9.90;;;9.40;;
23370;SDS011;11858;51.056;3.712;2023-06-24T03:54:57;11.27;;;10.30;;
23370;SDS011;11858;51.056;3.712;2023-06-24T03:57:23;12.93;;;10.20;;
23370;SDS011;11858;51.056;3.712;2023-06-24T03:59:49;13.20;;;11.77;;
23370;SDS011;11858;51.056;3.712;2023-06-24T04:02:14;9.27;;;8.77;;
23370;SDS011;11858;51.056;3.712;2023-06-24T04:04:40;9.80;;;9.27;;
23370;SDS011;11858;51.056;3.712;2023-06-24T04:07:06;10.02;;;9.23;;
23370;SDS011;11858;51.056;3.712;2023-06-24T04:09:34;9.20;;;8.70;;
23370;SDS011;11858;51.056;3.712;2023-06-24T04:12:00;8.65;;;8.15;;
23370;SDS011;11858;51.056;3.712;2023-06-24T04:14:28;9.98;;;9.18;;
23370;SDS011;11858;51.056;3.712;2023-06-24T04:16:53;9.90;;;9.25;;
23370;SDS011;11858;51.056;3.712;2023-06-24T04:19:19;8.20;;;7.80;;
23370;SDS011;11858;51.056;3.712;2023-06-24T04:21:45;10.40;;;9.60;;
23370;SDS011;11858;51.056;3.712;2023-06-24T04:24:10;13.23;;;12.13;;
23370;SDS011;11858;51.056;3.712;2023-06-24T04:26:36;8.20;;;7.80;;
23370;SDS011;11858;51.056;3.712;2023-06-24T04:29:01;11.45;;;10.35;;
23370;SDS011;11858;51.056;3.712;2023-06-24T04:31:27;11.13;;;10.23;;
23370;SDS011;11858;51.056;3.712;2023-06-24T04:33:53;8.65;;;8.18;;
23370;SDS011;11858;51.056;3.712;2023-06-24T04:36:19;8.65;;;8.15;;
23370;SDS011;11858;51.056;3.712;2023-06-24T04:38:44;9.38;;;8.80;;
23370;SDS011;11858;51.056;3.712;2023-06-24T04:41:10;9.73;;;9.10;;
23370;SDS011;11858;51.056;3.712;2023-06-24T04:43:36;11.02;;;10.23;;
23370;SDS011;11858;51.056;3.712;2023-06-24T04:46:01;8.77;;;8.38;;
23370;SDS011;11858;51.056;3.712;2023-06-24T04:48:27;16.05;;;13.88;;
23370;SDS011;11858;51.056;3.712;2023-06-24T04:50:53;8.63;;;8.02;;
23370;SDS011;11858;51.056;3.712;2023-06-24T04:53:20;12.05;;;10.90;;
23370;SDS011;11858;51.056;3.712;2023-06-24T04:55:46;9.07;;;8.57;;
23370;SDS011;11858;51.056;3.712;2023-06-24T04:58:12;11.70;;;10.60;;
23370;SDS011;11858;51.056;3.712;2023-06-24T05:00:38;9.25;;;8.75;;
23370;SDS011;11858;51.056;3.712;2023-06-24T05:03:03;13.00;;;11.70;;
23370;SDS011;11858;51.056;3.712;2023-06-24T05:05:29;8.85;;;8.40;;
23370;SDS011;11858;51.056;3.712;2023-06-24T05:07:55;11.40;;;10.43;;
23370;SDS011;11858;51.056;3.712;2023-06-24T05:10:21;11.50;;;10.40;;
23370;SDS011;11858;51.056;3.712;2023-06-24T05:12:46;11.43;;;10.23;;
23370;SDS011;11858;51.056;3.712;2023-06-24T05:15:12;9.38;;;8.88;;
23370;SDS011;11858;51.056;3.712;2023-06-24T05:17:38;11.15;;;10.25;;
23370;SDS011;11858;51.056;3.712;2023-06-24T05:20:04;10.23;;;9.63;;
23370;SDS011;11858;51.056;3.712;2023-06-24T05:22:31;10.02;;;9.43;;
23370;SDS011;11858;51.056;3.712;2023-06-24T05:24:56;11.88;;;10.98;;
23370;SDS011;11858;51.056;3.712;2023-06-24T05:27:22;13.27;;;12.15;;
23370;SDS011;11858;51.056;3.712;2023-06-24T05:29:48;12.02;;;11.00;;
23370;SDS011;11858;51.056;3.712;2023-06-24T05:32:13;9.15;;;8.65;;
23370;SDS011;11858;51.056;3.712;2023-06-24T05:34:39;9.95;;;9.27;;
23370;SDS011;11858;51.056;3.712;2023-06-24T05:37:05;8.80;;;8.35;;
23370;SDS011;11858;51.056;3.712;2023-06-24T05:39:31;11.68;;;10.57;;
23370;SDS011;11858;51.056;3.712;2023-06-24T05:41:56;9.48;;;8.85;;
23370;SDS011;11858;51.056;3.712;2023-06-24T05:44:22;8.70;;;8.20;;
23370;SDS011;11858;51.056;3.712;2023-06-24T05:46:48;10.65;;;9.88;;
23370;SDS011;11858;51.056;3.712;2023-06-24T05:49:14;8.95;;;8.45;;
23370;SDS011;11858;51.056;3.712;2023-06-24T05:51:39;11.98;;;11.05;;
23370;SDS011;11858;51.056;3.712;2023-06-24T05:54:05;9.85;;;9.15;;
23370;SDS011;11858;51.056;3.712;2023-06-24T05:56:32;8.85;;;8.25;;
23370;SDS011;11858;51.056;3.712;2023-06-24T05:58:58;16.33;;;13.50;;
23370;SDS011;11858;51.056;3.712;2023-06-24T06:01:24;13.65;;;12.30;;
23370;SDS011;11858;51.056;3.712;2023-06-24T06:03:50;9.73;;;9.02;;
23370;SDS011;11858;51.056;3.712;2023-06-24T06:06:15;9.82;;;9.10;;
23370;SDS011;11858;51.056;3.712;2023-06-24T06:08:41;11.45;;;10.30;;
23370;SDS011;11858;51.056;3.712;2023-06-24T06:11:07;13.85;;;12.45;;
23370;SDS011;11858;51.056;3.712;2023-06-24T06:13:32;14.50;;;13.15;;
23370;SDS011;11858;51.056;3.712;2023-06-24T06:15:58;14.73;;;13.23;;
23370;SDS011;11858;51.056;3.712;2023-06-24T06:18:24;13.48;;;11.85;;
23370;SDS011;11858;51.056;3.712;2023-06-24T06:20:50;13.70;;;12.45;;
23370;SDS011;11858;51.056;3.712;2023-06-24T06:23:16;10.00;;;9.30;;
23370;SDS011;11858;51.056;3.712;2023-06-24T06:25:42;11.23;;;10.35;;
23370;SDS011;11858;51.056;3.712;2023-06-24T06:28:07;10.82;;;10.07;;
23370;SDS011;11858;51.056;3.712;2023-06-24T06:30:33;8.93;;;8.43;;
23370;SDS011;11858;51.056;3.712;2023-06-24T06:32:59;12.38;;;11.43;;
23370;SDS011;11858;51.056;3.712;2023-06-24T06:35:25;15.23;;;13.82;;
23370;SDS011;11858;51.056;3.712;2023-06-24T06:37:50;13.30;;;12.02;;
23370;SDS011;11858;51.056;3.712;2023-06-24T06:40:20;9.82;;;9.23;;
23370;SDS011;11858;51.056;3.712;2023-06-24T06:42:46;9.10;;;8.60;;
23370;SDS011;11858;51.056;3.712;2023-06-24T06:45:12;13.90;;;12.73;;
23370;SDS011;11858;51.056;3.712;2023-06-24T06:47:38;10.95;;;10.25;;
23370;SDS011;11858;51.056;3.712;2023-06-24T06:50:04;21.35;;;15.25;;
23370;SDS011;11858;51.056;3.712;2023-06-24T06:52:31;10.93;;;10.32;;
23370;SDS011;11858;51.056;3.712;2023-06-24T06:54:57;11.60;;;10.80;;
23370;SDS011;11858;51.056;3.712;2023-06-24T06:57:23;12.27;;;11.57;;
23370;SDS011;11858;51.056;3.712;2023-06-24T06:59:48;12.13;;;11.32;;
23370;SDS011;11858;51.056;3.712;2023-06-24T07:02:16;11.00;;;10.40;;
23370;SDS011;11858;51.056;3.712;2023-06-24T07:04:44;11.65;;;10.95;;
23370;SDS011;11858;51.056;3.712;2023-06-24T07:07:10;12.13;;;11.23;;
23370;SDS011;11858;51.056;3.712;2023-06-24T07:09:37;16.83;;;13.80;;
23370;SDS011;11858;51.056;3.712;2023-06-24T07:12:02;12.88;;;12.07;;
23370;SDS011;11858;51.056;3.712;2023-06-24T07:14:28;13.50;;;12.32;;
23370;SDS011;11858;51.056;3.712;2023-06-24T07:16:54;11.95;;;11.25;;
23370;SDS011;11858;51.056;3.712;2023-06-24T07:19:19;12.85;;;12.02;;
23370;SDS011;11858;51.056;3.712;2023-06-24T07:21:45;11.43;;;10.82;;
23370;SDS011;11858;51.056;3.712;2023-06-24T07:24:11;11.38;;;10.77;;
23370;SDS011;11858;51.056;3.712;2023-06-24T07:26:36;11.45;;;10.85;;
23370;SDS011;11858;51.056;3.712;2023-06-24T07:29:02;11.70;;;11.10;;
23370;SDS011;11858;51.056;3.712;2023-06-24T07:31:31;12.55;;;11.85;;
23370;SDS011;11858;51.056;3.712;2023-06-24T07:33:56;17.17;;;15.52;;
23370;SDS011;11858;51.056;3.712;2023-06-24T07:36:22;13.90;;;13.00;;
23370;SDS011;11858;51.056;3.712;2023-06-24T07:38:48;12.70;;;12.00;;
23370;SDS011;11858;51.056;3.712;2023-06-24T07:41:13;19.63;;;17.75;;
23370;SDS011;11858;51.056;3.712;2023-06-24T07:43:39;13.55;;;12.70;;
23370;SDS011;11858;51.056;3.712;2023-06-24T07:46:04;14.82;;;13.85;;
23370;SDS011;11858;51.056;3.712;2023-06-24T07:48:30;13.80;;;13.00;;
23370;SDS011;11858;51.056;3.712;2023-06-24T07:50:56;14.10;;;13.30;;
23370;SDS011;11858;51.056;3.712;2023-06-24T07:53:22;13.85;;;13.05;;
23370;SDS011;11858;51.056;3.712;2023-06-24T07:55:48;16.63;;;15.52;;
23370;SDS011;11858;51.056;3.712;2023-06-24T07:58:13;14.40;;;13.60;;
23370;SDS011;11858;51.056;3.712;2023-06-24T08:00:39;14.40;;;13.60;;
23370;SDS011;11858;51.056;3.712;2023-06-24T08:03:05;13.75;;;12.95;;
23370;SDS011;11858;51.056;3.712;2023-06-24T08:05:30;18.08;;;16.50;;
23370;SDS011;11858;51.056;3.712;2023-06-24T08:07:56;16.88;;;15.68;;
23370;SDS011;11858;51.056;3.712;2023-06-24T08:10:21;16.23;;;15.13;;
23370;SDS011;11858;51.056;3.712;2023-06-24T08:12:47;14.55;;;13.75;;
23370;SDS011;11858;51.056;3.712;2023-06-24T08:15:13;19.65;;;17.05;;
23370;SDS011;11858;51.056;3.712;2023-06-24T08:17:38;14.70;;;13.80;;
23370;SDS011;11858;51.056;3.712;2023-06-24T08:20:04;14.88;;;13.98;;
23370;SDS011;11858;51.056;3.712;2023-06-24T08:22:30;16.48;;;15.43;;
23370;SDS011;11858;51.056;3.712;2023-06-24T08:24:56;15.50;;;14.60;;
23370;SDS011;11858;51.056;3.712;2023-06-24T08:27:21;15.45;;;14.55;;
23370;SDS011;11858;51.056;3.712;2023-06-24T08:29:47;15.30;;;14.40;;
23370;SDS011;11858;51.056;3.712;2023-06-24T08:32:13;17.48;;;16.38;;
23370;SDS011;11858;51.056;3.712;2023-06-24T08:34:38;16.42;;;15.43;;
23370;SDS011;11858;51.056;3.712;2023-06-24T08:37:04;18.58;;;17.17;;
23370;SDS011;11858;51.056;3.712;2023-06-24T08:39:30;17.35;;;16.10;;
23370;SDS011;11858;51.056;3.712;2023-06-24T08:41:55;17.50;;;16.40;;
23370;SDS011;11858;51.056;3.712;2023-06-24T08:44:21;18.60;;;17.02;;
23370;SDS011;11858;51.056;3.712;2023-06-24T08:46:47;17.95;;;16.75;;
23370;SDS011;11858;51.056;3.712;2023-06-24T08:51:45;18.67;;;17.38;;
23370;SDS011;11858;51.056;3.712;2023-06-24T08:54:14;17.58;;;16.48;;
23370;SDS011;11858;51.056;3.712;2023-06-24T08:56:41;19.13;;;17.80;;
23370;SDS011;11858;51.056;3.712;2023-06-24T08:59:08;18.20;;;17.00;;
23370;SDS011;11858;51.056;3.712;2023-06-24T09:01:34;20.60;;;18.95;;
23370;SDS011;11858;51.056;3.712;2023-06-24T09:04:00;22.85;;;20.67;;
23370;SDS011;11858;51.056;3.712;2023-06-24T09:06:25;18.00;;;16.83;;
23370;SDS011;11858;51.056;3.712;2023-06-24T09:08:52;17.95;;;16.85;;
23370;SDS011;11858;51.056;3.712;2023-06-24T09:11:22;17.40;;;16.30;;
23370;SDS011;11858;51.056;3.712;2023-06-24T09:13:58;23.15;;;19.90;;
23370;SDS011;11858;51.056;3.712;2023-06-24T09:16:25;20.23;;;18.63;;
23370;SDS011;11858;51.056;3.712;2023-06-24T09:18:52;18.92;;;17.52;;
23370;SDS011;11858;51.056;3.712;2023-06-24T09:21:25;20.52;;;18.65;;
23370;SDS011;11858;51.056;3.712;2023-06-24T09:23:58;19.00;;;17.65;;
23370;SDS011;11858;51.056;3.712;2023-06-24T09:26:24;22.13;;;20.15;;
23370;SDS011;11858;51.056;3.712;2023-06-24T09:28:50;17.10;;;16.00;;
23370;SDS011;11858;51.056;3.712;2023-06-24T09:31:16;19.67;;;18.20;;
23370;SDS011;11858;51.056;3.712;2023-06-24T09:33:43;21.92;;;20.23;;
23370;SDS011;11858;51.056;3.712;2023-06-24T09:36:15;19.23;;;17.80;;
23370;SDS011;11858;51.056;3.712;2023-06-24T09:38:42;19.30;;;18.00;;
23370;SDS011;11858;51.056;3.712;2023-06-24T09:41:09;18.83;;;17.42;;
23370;SDS011;11858;51.056;3.712;2023-06-24T09:43:36;17.95;;;16.75;;
23370;SDS011;11858;51.056;3.712;2023-06-24T09:46:02;19.08;;;17.67;;
23370;SDS011;11858;51.056;3.712;2023-06-24T09:48:29;19.00;;;17.50;;
23370;SDS011;11858;51.056;3.712;2023-06-24T09:50:56;19.90;;;18.20;;
23370;SDS011;11858;51.056;3.712;2023-06-24T09:53:25;17.58;;;16.48;;
23370;SDS011;11858;51.056;3.712;2023-06-24T09:56:03;17.05;;;15.95;;
23370;SDS011;11858;51.056;3.712;2023-06-24T09:58:31;18.55;;;17.10;;
23370;SDS011;11858;51.056;3.712;2023-06-24T10:00:59;20.50;;;18.92;;
23370;SDS011;11858;51.056;3.712;2023-06-24T10:05:54;17.60;;;16.50;;
23370;SDS011;11858;51.056;3.712;2023-06-24T10:08:20;17.35;;;16.25;;
23370;SDS011;11858;51.056;3.712;2023-06-24T10:10:46;18.65;;;17.38;;
23370;SDS011;11858;51.056;3.712;2023-06-24T10:13:12;18.10;;;16.90;;
23370;SDS011;11858;51.056;3.712;2023-06-24T10:15:37;17.13;;;16.13;;
23370;SDS011;11858;51.056;3.712;2023-06-24T10:18:03;19.02;;;17.73;;
23370;SDS011;11858;51.056;3.712;2023-06-24T10:21:00;17.88;;;16.25;;
23370;SDS011;11858;51.056;3.712;2023-06-24T10:26:07;18.92;;;17.48;;
23370;SDS011;11858;51.056;3.712;2023-06-24T10:36:52;18.35;;;17.05;;
23370;SDS011;11858;51.056;3.712;2023-06-24T10:40:05;18.35;;;17.15;;
23370;SDS011;11858;51.056;3.712;2023-06-24T10:47:35;17.02;;;16.02;;
23370;SDS011;11858;51.056;3.712;2023-06-24T10:50:05;18.05;;;16.95;;
23370;SDS011;11858;51.056;3.712;2023-06-24T10:52:32;16.85;;;15.85;;
23370;SDS011;11858;51.056;3.712;2023-06-24T10:55:02;17.45;;;16.35;;
23370;SDS011;11858;51.056;3.712;2023-06-24T10:57:28;18.25;;;17.05;;
23370;SDS011;11858;51.056;3.712;2023-06-24T10:59:56;17.55;;;16.45;;
23370;SDS011;11858;51.056;3.712;2023-06-24T11:02:23;17.30;;;16.20;;
23370;SDS011;11858;51.056;3.712;2023-06-24T11:04:53;18.40;;;17.10;;
23370;SDS011;11858;51.056;3.712;2023-06-24T11:07:27;17.40;;;16.25;;
23370;SDS011;11858;51.056;3.712;2023-06-24T11:09:58;19.50;;;18.02;;
23370;SDS011;11858;51.056;3.712;2023-06-24T11:12:28;15.85;;;14.85;;
23370;SDS011;11858;51.056;3.712;2023-06-24T11:14:56;15.90;;;15.00;;
23370;SDS011;11858;51.056;3.712;2023-06-24T11:17:22;15.48;;;14.57;;
23370;SDS011;11858;51.056;3.712;2023-06-24T11:19:48;16.20;;;15.20;;
23370;SDS011;11858;51.056;3.712;2023-06-24T11:22:15;17.50;;;16.10;;
23370;SDS011;11858;51.056;3.712;2023-06-24T11:24:40;16.90;;;15.90;;
23370;SDS011;11858;51.056;3.712;2023-06-24T11:27:06;16.30;;;15.30;;
23370;SDS011;11858;51.056;3.712;2023-06-24T11:29:32;19.98;;;18.23;;
23370;SDS011;11858;51.056;3.712;2023-06-24T11:32:00;18.67;;;17.27;;
23370;SDS011;11858;51.056;3.712;2023-06-24T11:34:27;16.60;;;15.60;;
23370;SDS011;11858;51.056;3.712;2023-06-24T11:36:53;20.30;;;18.73;;
23370;SDS011;11858;51.056;3.712;2023-06-24T11:39:26;17.85;;;16.65;;
23370;SDS011;11858;51.056;3.712;2023-06-24T11:41:52;18.90;;;17.48;;
23370;SDS011;11858;51.056;3.712;2023-06-24T11:44:19;18.50;;;17.20;;
23370;SDS011;11858;51.056;3.712;2023-06-24T11:46:46;17.92;;;16.73;;
23370;SDS011;11858;51.056;3.712;2023-06-24T11:49:12;18.15;;;16.95;;
23370;SDS011;11858;51.056;3.712;2023-06-24T11:51:44;17.10;;;16.00;;
23370;SDS011;11858;51.056;3.712;2023-06-24T11:54:18;19.73;;;17.70;;
23370;SDS011;11858;51.056;3.712;2023-06-24T11:56:49;17.73;;;16.63;;
23370;SDS011;11858;51.056;3.712;2023-06-24T11:59:17;18.27;;;17.08;;
23370;SDS011;11858;51.056;3.712;2023-06-24T12:01:53;17.40;;;16.20;;
23370;SDS011;11858;51.056;3.712;2023-06-24T12:04:20;17.45;;;16.35;;
23370;SDS011;11858;51.056;3.712;2023-06-24T12:06:51;20.05;;;18.27;;
23370;SDS011;11858;51.056;3.712;2023-06-24T12:09:17;17.50;;;16.40;;
23370;SDS011;11858;51.056;3.712;2023-06-24T12:11:43;18.10;;;16.90;;
23370;SDS011;11858;51.056;3.712;2023-06-24T12:14:08;18.83;;;17.33;;
23370;SDS011;11858;51.056;3.712;2023-06-24T12:16:34;21.05;;;19.20;;
23370;SDS011;11858;51.056;3.712;2023-06-24T12:19:00;19.30;;;17.85;;
23370;SDS011;11858;51.056;3.712;2023-06-24T12:21:25;19.00;;;17.73;;
23370;SDS011;11858;51.056;3.712;2023-06-24T12:23:51;18.05;;;16.95;;
23370;SDS011;11858;51.056;3.712;2023-06-24T12:26:17;17.70;;;16.60;;
23370;SDS011;11858;51.056;3.712;2023-06-24T12:28:42;18.00;;;16.80;;
23370;SDS011;11858;51.056;3.712;2023-06-24T12:31:08;18.13;;;16.92;;
23370;SDS011;11858;51.056;3.712;2023-06-24T12:33:34;18.38;;;17.17;;
23370;SDS011;11858;51.056;3.712;2023-06-24T12:35:59;19.92;;;18.42;;
23370;SDS011;11858;51.056;3.712;2023-06-24T12:38:25;19.65;;;18.15;;
23370;SDS011;11858;51.056;3.712;2023-06-24T12:40:51;17.85;;;16.75;;
23370;SDS011;11858;51.056;3.712;2023-06-24T12:43:17;19.08;;;17.88;;
23370;SDS011;11858;51.056;3.712;2023-06-24T12:45:43;18.85;;;17.65;;
23370;SDS011;11858;51.056;3.712;2023-06-24T12:48:09;19.00;;;17.70;;
23370;SDS011;11858;51.056;3.712;2023-06-24T12:50:35;18.67;;;17.48;;
23370;SDS011;11858;51.056;3.712;2023-06-24T12:53:01;19.13;;;17.83;;
23370;SDS011;11858;51.056;3.712;2023-06-24T12:55:28;18.52;;;17.33;;
23370;SDS011;11858;51.056;3.712;2023-06-24T12:57:54;18.20;;;17.00;;
23370;SDS011;11858;51.056;3.712;2023-06-24T13:00:20;17.90;;;16.80;;
23370;SDS011;11858;51.056;3.712;2023-06-24T13:02:46;18.83;;;17.63;;
23370;SDS011;11858;51.056;3.712;2023-06-24T13:05:12;18.52;;;17.23;;
23370;SDS011;11858;51.056;3.712;2023-06-24T13:07:37;18.73;;;17.52;;
23370;SDS011;11858;51.056;3.712;2023-06-24T13:10:03;18.45;;;17.25;;
23370;SDS011;11858;51.056;3.712;2023-06-24T13:12:31;17.90;;;16.80;;
23370;SDS011;11858;51.056;3.712;2023-06-24T13:14:57;18.70;;;17.50;;
23370;SDS011;11858;51.056;3.712;2023-06-24T13:17:23;19.33;;;17.98;;
23370;SDS011;11858;51.056;3.712;2023-06-24T13:19:49;18.38;;;17.20;;
23370;SDS011;11858;51.056;3.712;2023-06-24T13:22:15;18.15;;;17.05;;
23370;SDS011;11858;51.056;3.712;2023-06-24T13:24:41;18.70;;;17.50;;
23370;SDS011;11858;51.056;3.712;2023-06-24T13:27:07;18.73;;;17.52;;
23370;SDS011;11858;51.056;3.712;2023-06-24T13:29:32;17.92;;;16.83;;
23370;SDS011;11858;51.056;3.712;2023-06-24T13:31:58;18.15;;;17.05;;
23370;SDS011;11858;51.056;3.712;2023-06-24T13:34:24;18.48;;;17.27;;
23370;SDS011;11858;51.056;3.712;2023-06-24T13:36:49;18.48;;;17.27;;
23370;SDS011;11858;51.056;3.712;2023-06-24T13:39:15;18.45;;;17.25;;
23370;SDS011;11858;51.056;3.712;2023-06-24T13:41:42;18.20;;;17.00;;
23370;SDS011;11858;51.056;3.712;2023-06-24T13:44:09;18.73;;;17.52;;
23370;SDS011;11858;51.056;3.712;2023-06-24T13:46:35;17.75;;;16.65;;
23370;SDS011;11858;51.056;3.712;2023-06-24T13:49:00;17.95;;;16.85;;
23370;SDS011;11858;51.056;3.712;2023-06-24T13:51:26;20.00;;;18.60;;
23370;SDS011;11858;51.056;3.712;2023-06-24T13:53:53;17.60;;;16.50;;
23370;SDS011;11858;51.056;3.712;2023-06-24T13:56:20;17.98;;;16.88;;
23370;SDS011;11858;51.056;3.712;2023-06-24T13:58:47;17.92;;;16.83;;
23370;SDS011;11858;51.056;3.712;2023-06-24T14:01:14;19.23;;;17.92;;
23370;SDS011;11858;51.056;3.712;2023-06-24T14:03:40;18.30;;;17.20;;
23370;SDS011;11858;51.056;3.712;2023-06-24T14:06:06;20.05;;;18.85;;
23370;SDS011;11858;51.056;3.712;2023-06-24T14:08:32;20.40;;;19.20;;
23370;SDS011;11858;51.056;3.712;2023-06-24T14:10:59;21.17;;;19.88;;
23370;SDS011;11858;51.056;3.712;2023-06-24T14:13:26;20.05;;;18.85;;
23370;SDS011;11858;51.056;3.712;2023-06-24T14:15:52;20.55;;;19.25;;
23370;SDS011;11858;51.056;3.712;2023-06-24T14:18:19;20.40;;;19.13;;
23370;SDS011;11858;51.056;3.712;2023-06-24T14:20:44;20.70;;;19.20;;
23370;SDS011;11858;51.056;3.712;2023-06-24T14:23:10;21.33;;;20.02;;
23370;SDS011;11858;51.056;3.712;2023-06-24T14:25:36;19.95;;;18.65;;
23370;SDS011;11858;51.056;3.712;2023-06-24T14:28:03;20.60;;;19.00;;
23370;SDS011;11858;51.056;3.712;2023-06-24T14:30:29;20.58;;;19.08;;
23370;SDS011;11858;51.056;3.712;2023-06-24T14:32:55;19.27;;;17.98;;
23370;SDS011;11858;51.056;3.712;2023-06-24T14:35:21;19.00;;;17.80;;
23370;SDS011;11858;51.056;3.712;2023-06-24T14:37:46;20.92;;;19.38;;
23370;SDS011;11858;51.056;3.712;2023-06-24T14:40:12;19.35;;;18.15;;
23370;SDS011;11858;51.056;3.712;2023-06-24T14:42:37;19.73;;;18.42;;
23370;SDS011;11858;51.056;3.712;2023-06-24T14:45:03;18.80;;;17.60;;
23370;SDS011;11858;51.056;3.712;2023-06-24T14:47:29;19.00;;;17.85;;
23370;SDS011;11858;51.056;3.712;2023-06-24T14:49:56;19.25;;;18.05;;
23370;SDS011;11858;51.056;3.712;2023-06-24T14:52:21;18.40;;;17.30;;
23370;SDS011;11858;51.056;3.712;2023-06-24T14:54:47;18.50;;;17.40;;
23370;SDS011;11858;51.056;3.712;2023-06-24T14:57:13;20.20;;;18.88;;